createdAt,value
2022-09-04T00:00:14.748Z,53.34
2022-09-04T00:02:55.685Z,52.49
2022-09-04T00:05:48.981Z,53.52
2022-09-04T00:08:22.609Z,52.86
2022-09-04T00:11:06.693Z,52.45
2022-09-04T00:13:39.859Z,52.02
2022-09-04T00:16:12.968Z,52.33
2022-09-04T00:18:54.153Z,52.26
2022-09-04T00:21:44.006Z,52.03
2022-09-04T00:24:16.326Z,51.03
2022-09-04T00:27:05.672Z,52.24
2022-09-04T00:29:54.841Z,51.18
2022-09-04T00:32:50.218Z,53.27
2022-09-04T00:35:41.370Z,51.14
2022-09-04T00:38:27.158Z,51.87
2022-09-04T00:41:21.045Z,51.88
2022-09-04T00:44:13.027Z,51.95
2022-09-04T00:46:58.980Z,50.14
2022-09-04T00:49:42.339Z,51.48
2022-09-04T00:52:36.635Z,51.92
2022-09-04T00:55:42.144Z,51.58
2022-09-04T00:58:40.440Z,50.59
2022-09-04T01:01:14.886Z,50.48
2022-09-04T01:04:12.913Z,51.89
2022-09-04T01:07:23.239Z,52.45
2022-09-04T01:10:08.975Z,52.67
2022-09-04T01:12:50.467Z,51.32
2022-09-04T01:15:39.259Z,52.12
2022-09-04T01:18:35.382Z,52.88
2022-09-04T01:21:06.833Z,51.13
2022-09-04T01:23:57.843Z,52.57
2022-09-04T01:26:33.640Z,51.80
2022-09-04T01:29:40.100Z,52.45
2022-09-04T01:32:28.903Z,51.93
2022-09-04T01:34:59.867Z,50.69
2022-09-04T01:38:10.523Z,51.76
2022-09-04T01:40:51.842Z,52.16
2022-09-04T01:43:21.555Z,50.94
2022-09-04T01:46:19.507Z,51.43
2022-09-04T01:49:10.191Z,51.87
2022-09-04T01:51:46.470Z,50.35
2022-09-04T01:54:43.372Z,49.25
2022-09-04T01:57:37.041Z,49.86
2022-09-04T02:00:17.597Z,50.77
2022-09-04T02:03:10.790Z,52.10
2022-09-04T02:05:44.810Z,49.71
2022-09-04T02:08:15.456Z,50.83
2022-09-04T02:11:28.102Z,48.13
2022-09-04T02:14:25.840Z,50.34
2022-09-04T02:17:02.642Z,49.97
2022-09-04T02:20:09.591Z,47.83
2022-09-04T02:22:45.059Z,49.17
2022-09-04T02:25:35.399Z,48.39
2022-09-04T02:28:33.949Z,46.56
2022-09-04T02:31:52.284Z,45.81
2022-09-04T02:34:53.032Z,44.64
2022-09-04T02:37:57.950Z,43.54
2022-09-04T02:41:00.623Z,42.43
2022-09-04T02:43:36.518Z,43.43
2022-09-04T02:46:28.308Z,39.25
2022-09-04T02:49:15.502Z,39.26
2022-09-04T02:51:50.963Z,37.46
2022-09-04T02:54:33.722Z,36.48
2022-09-04T02:57:33.735Z,35.73
2022-09-04T03:00:26.011Z,33.36
2022-09-04T03:03:17.212Z,33.70
2022-09-04T03:06:02.535Z,33.43
2022-09-04T03:08:44.018Z,31.50
2022-09-04T03:11:27.153Z,30.77
2022-09-04T03:14:05.476Z,30.60
2022-09-04T03:16:50.712Z,30.89
2022-09-04T03:19:35.736Z,29.74
2022-09-04T03:22:03.225Z,29.43
2022-09-04T03:24:40.270Z,28.21
2022-09-04T03:27:19.331Z,27.97
2022-09-04T03:29:56.790Z,27.07
2022-09-04T03:32:27.152Z,26.47
2022-09-04T03:35:00.460Z,26.69
2022-09-04T03:38:09.390Z,27.02
2022-09-04T03:40:46.827Z,26.12
2022-09-04T03:43:17.248Z,24.59
2022-09-04T03:46:07.919Z,24.41
2022-09-04T03:49:07.612Z,24.09
2022-09-04T03:51:44.194Z,23.13
2022-09-04T03:54:27.501Z,23.26
2022-09-04T03:57:16.251Z,22.46
2022-09-04T04:00:18.564Z,24.18
2022-09-04T04:03:10.478Z,22.25
2022-09-04T04:05:52.840Z,21.28
2022-09-04T04:08:49.048Z,21.66
2022-09-04T04:11:46.912Z,21.03
2022-09-04T04:14:20.091Z,19.68
2022-09-04T04:17:08.175Z,18.91
2022-09-04T04:20:09.399Z,19.42
2022-09-04T04:23:00.997Z,18.65
2022-09-04T04:25:52.361Z,18.90
2022-09-04T04:28:29.466Z,17.99
2022-09-04T04:31:21.735Z,17.66
2022-09-04T04:34:03.276Z,17.33
2022-09-04T04:36:55.490Z,17.75
2022-09-04T04:39:36.263Z,16.84
2022-09-04T04:42:09.843Z,16.21
2022-09-04T04:45:20.699Z,16.33
2022-09-04T04:48:08.428Z,16.65
2022-09-04T04:50:41.592Z,16.51
2022-09-04T04:53:17.221Z,17.02
2022-09-04T04:55:59.842Z,17.62
2022-09-04T04:58:55.225Z,18.83
2022-09-04T05:01:33.233Z,17.88
2022-09-04T05:04:30.319Z,17.51
2022-09-04T05:07:09.370Z,18.70
2022-09-04T05:09:51.749Z,18.60
2022-09-04T05:12:50.441Z,19.20
2022-09-04T05:15:29.468Z,19.64
2022-09-04T05:18:22.664Z,19.30
2022-09-04T05:21:02.723Z,20.13
2022-09-04T05:23:48.989Z,19.50
2022-09-04T05:26:34.772Z,20.26
2022-09-04T05:29:08.192Z,19.71
2022-09-04T05:31:57.243Z,20.04
2022-09-04T05:34:52.299Z,19.67
2022-09-04T05:37:37.496Z,20.10
2022-09-04T05:40:20.038Z,20.44
2022-09-04T05:42:56.852Z,19.88
2022-09-04T05:45:27.176Z,19.84
2022-09-04T05:48:16.410Z,20.20
2022-09-04T05:50:54.416Z,20.39
2022-09-04T05:53:49.792Z,21.27
2022-09-04T05:56:32.440Z,20.68
2022-09-04T05:59:23.666Z,20.46
2022-09-04T06:02:00.189Z,20.67
2022-09-04T06:04:40.798Z,20.28
2022-09-04T06:07:17.007Z,20.56
2022-09-04T06:10:17.675Z,20.42
2022-09-04T06:13:16.999Z,21.34
2022-09-04T06:16:13.536Z,20.51
2022-09-04T06:19:02.455Z,20.27
2022-09-04T06:21:46.360Z,20.21
2022-09-04T06:24:32.408Z,20.78
2022-09-04T06:27:24.667Z,20.64
2022-09-04T06:30:09.218Z,20.26
2022-09-04T06:33:01.270Z,20.54
2022-09-04T06:35:44.004Z,20.43
2022-09-04T06:38:29.848Z,21.06
2022-09-04T06:41:11.076Z,21.23
2022-09-04T06:44:01.524Z,20.55
2022-09-04T06:46:40.570Z,20.27
2022-09-04T06:49:36.247Z,21.42
2022-09-04T06:52:18.946Z,20.44
2022-09-04T06:55:20.325Z,21.45
2022-09-04T06:57:56.888Z,21.02
2022-09-04T07:00:25.473Z,20.69
2022-09-04T07:03:15.164Z,21.83
2022-09-04T07:06:01.215Z,21.04
2022-09-04T07:09:05.912Z,21.76
2022-09-04T07:11:42.493Z,21.76
2022-09-04T07:14:37.183Z,21.67
2022-09-04T07:17:39.722Z,21.93
2022-09-04T07:20:28.785Z,21.80
2022-09-04T07:23:12.684Z,21.61
2022-09-04T07:26:28.776Z,21.93
2022-09-04T07:29:17.401Z,22.20
2022-09-04T07:32:08.716Z,22.33
2022-09-04T07:34:56.235Z,22.53
2022-09-04T07:37:58.838Z,22.66
2022-09-04T07:40:51.147Z,22.56
2022-09-04T07:43:40.136Z,22.82
2022-09-04T07:46:20.827Z,23.27
2022-09-04T07:49:07.352Z,22.98
2022-09-04T07:51:42.998Z,22.73
2022-09-04T07:54:22.372Z,23.08
2022-09-04T07:57:22.694Z,23.09
2022-09-04T08:00:23.082Z,23.04
2022-09-04T08:03:03.172Z,23.44
2022-09-04T08:05:30.625Z,23.83
2022-09-04T08:08:20.089Z,23.65
2022-09-04T08:11:16.606Z,23.69
2022-09-04T08:13:51.371Z,23.31
2022-09-04T08:16:56.977Z,23.42
2022-09-04T08:19:49.322Z,23.95
2022-09-04T08:22:28.461Z,23.58
2022-09-04T08:25:36.487Z,24.35
2022-09-04T08:28:25.519Z,24.23
2022-09-04T08:31:08.464Z,23.79
2022-09-04T08:33:39.421Z,23.72
2022-09-04T08:36:39.060Z,23.02
2022-09-04T08:39:32.656Z,23.85
2022-09-04T08:42:22.064Z,24.55
2022-09-04T08:45:17.541Z,24.92
2022-09-04T08:48:09.597Z,24.81
2022-09-04T08:50:51.542Z,25.12
2022-09-04T08:53:41.022Z,25.48
2022-09-04T08:56:42.540Z,25.00
2022-09-04T08:59:19.059Z,25.45
2022-09-04T09:02:21.721Z,25.40
2022-09-04T09:05:04.203Z,25.79
2022-09-04T09:07:46.599Z,25.50
2022-09-04T09:11:02.486Z,25.56
2022-09-04T09:13:46.983Z,25.77
2022-09-04T09:16:28.479Z,26.59
2022-09-04T09:19:22.988Z,26.58
2022-09-04T09:21:59.474Z,26.67
2022-09-04T09:24:26.988Z,26.90
2022-09-04T09:27:19.623Z,26.31
2022-09-04T09:30:05.677Z,26.61
2022-09-04T09:33:03.778Z,27.83
2022-09-04T09:36:06.763Z,27.31
2022-09-04T09:38:36.850Z,27.85
2022-09-04T09:41:42.271Z,27.10
2022-09-04T09:44:34.515Z,27.80
2022-09-04T09:47:15.564Z,27.24
2022-09-04T09:50:01.754Z,27.29
2022-09-04T09:53:00.634Z,27.92
2022-09-04T09:55:28.388Z,27.73
2022-09-04T09:57:58.868Z,27.17
2022-09-04T10:00:38.807Z,27.47
2022-09-04T10:03:36.816Z,27.47
2022-09-04T10:06:35.035Z,27.20
2022-09-04T10:09:33.050Z,26.27
2022-09-04T10:12:31.319Z,26.78
2022-09-04T10:15:26.615Z,27.44
2022-09-04T10:18:14.254Z,27.24
2022-09-04T10:20:55.508Z,26.97
2022-09-04T10:23:47.764Z,27.47
2022-09-04T10:26:39.500Z,27.84
2022-09-04T10:29:45.397Z,28.88
2022-09-04T10:32:55.410Z,27.77
2022-09-04T10:35:23.449Z,28.00
2022-09-04T10:37:53.774Z,28.21
2022-09-04T10:40:38.555Z,27.88
2022-09-04T10:43:12.950Z,28.55
2022-09-04T10:45:47.426Z,28.57
2022-09-04T10:48:40.891Z,28.29
2022-09-04T10:51:34.654Z,28.18
2022-09-04T10:54:36.416Z,28.53
2022-09-04T10:57:24.099Z,27.49
2022-09-04T11:00:07.522Z,28.00
2022-09-04T11:03:08.281Z,29.07
2022-09-04T11:06:16.786Z,27.57
2022-09-04T11:09:01.491Z,27.44
2022-09-04T11:11:28.981Z,28.37
2022-09-04T11:14:06.694Z,28.03
2022-09-04T11:16:59.169Z,28.41
2022-09-04T11:19:54.305Z,28.50
2022-09-04T11:22:39.883Z,28.14
2022-09-04T11:25:28.479Z,28.05
2022-09-04T11:27:59.397Z,29.70
2022-09-04T11:30:48.873Z,28.36
2022-09-04T11:33:50.978Z,28.04
2022-09-04T11:36:24.285Z,28.05
2022-09-04T11:39:07.136Z,28.17
2022-09-04T11:42:09.367Z,27.81
2022-09-04T11:45:00.754Z,28.51
2022-09-04T11:47:46.614Z,28.55
2022-09-04T11:50:35.947Z,28.69
2022-09-04T11:53:19.876Z,29.68
2022-09-04T11:56:11.536Z,29.50
2022-09-04T11:59:00.283Z,29.14
2022-09-04T12:01:52.773Z,28.96
2022-09-04T12:04:36.074Z,28.71
2022-09-04T12:07:12.617Z,29.29
2022-09-04T12:10:03.263Z,29.67
2022-09-04T12:13:07.602Z,29.26
2022-09-04T12:15:55.581Z,28.86
2022-09-04T12:18:54.659Z,28.65
2022-09-04T12:21:54.159Z,28.89
2022-09-04T12:24:40.506Z,28.86
2022-09-04T12:27:27.211Z,29.34
2022-09-04T12:30:19.561Z,29.99
2022-09-04T12:33:09.236Z,29.20
2022-09-04T12:35:50.834Z,29.53
2022-09-04T12:38:57.153Z,30.17
2022-09-04T12:41:34.592Z,29.06
2022-09-04T12:44:09.284Z,28.59
2022-09-04T12:46:58.856Z,28.22
2022-09-04T12:49:44.447Z,28.36
2022-09-04T12:52:20.916Z,28.46
2022-09-04T12:55:26.285Z,28.76
2022-09-04T12:58:31.568Z,28.43
2022-09-04T13:01:43.774Z,28.63
2022-09-04T13:04:47.333Z,28.57
2022-09-04T13:07:47.212Z,28.63
2022-09-04T13:10:35.942Z,28.94
2022-09-04T13:13:25.522Z,29.92
2022-09-04T13:16:00.666Z,30.36
2022-09-04T13:18:49.139Z,30.62
2022-09-04T13:21:25.967Z,30.28
2022-09-04T13:24:02.398Z,30.35
2022-09-04T13:26:42.881Z,30.98
2022-09-04T13:29:26.349Z,30.45
2022-09-04T13:32:28.207Z,31.17
2022-09-04T13:35:19.718Z,30.89
2022-09-04T13:38:21.839Z,31.53
2022-09-04T13:41:09.172Z,31.30
2022-09-04T13:44:03.981Z,31.33
2022-09-04T13:47:09.295Z,31.31
2022-09-04T13:50:08.817Z,31.62
2022-09-04T13:52:48.185Z,31.68
2022-09-04T13:55:27.716Z,32.66
2022-09-04T13:57:59.590Z,32.77
2022-09-04T14:00:30.741Z,32.38
2022-09-04T14:03:11.447Z,32.88
2022-09-04T14:05:39.802Z,32.16
2022-09-04T14:08:15.419Z,33.63
2022-09-04T14:11:11.144Z,33.58
2022-09-04T14:13:58.987Z,33.10
2022-09-04T14:16:26.669Z,33.45
2022-09-04T14:19:15.584Z,33.86
2022-09-04T14:22:05.666Z,34.08
2022-09-04T14:25:00.326Z,33.78
2022-09-04T14:27:53.964Z,34.15
2022-09-04T14:30:23.501Z,33.88
2022-09-04T14:33:35.832Z,33.85
2022-09-04T14:36:46.152Z,33.86
2022-09-04T14:39:23.303Z,34.25
2022-09-04T14:41:57.906Z,34.30
2022-09-04T14:44:52.821Z,34.92
2022-09-04T14:47:44.907Z,34.79
2022-09-04T14:50:15.647Z,35.56
2022-09-04T14:52:54.923Z,35.37
2022-09-04T14:55:35.139Z,35.13
2022-09-04T14:58:12.830Z,34.66
2022-09-04T15:01:20.503Z,35.04
2022-09-04T15:04:02.151Z,35.16
2022-09-04T15:07:07.807Z,35.58
2022-09-04T15:09:38.077Z,35.50
2022-09-04T15:12:25.004Z,36.14
2022-09-04T15:15:19.316Z,35.36
2022-09-04T15:18:16.475Z,36.50
2022-09-04T15:21:02.003Z,35.57
2022-09-04T15:23:47.763Z,36.20
2022-09-04T15:26:47.340Z,35.38
2022-09-04T15:29:23.267Z,36.44
2022-09-04T15:32:00.115Z,36.19
2022-09-04T15:34:28.720Z,35.64
2022-09-04T15:37:10.978Z,35.28
2022-09-04T15:39:54.308Z,35.34
2022-09-04T15:42:37.033Z,35.50
2022-09-04T15:45:22.165Z,35.57
2022-09-04T15:48:01.812Z,35.63
2022-09-04T15:50:34.769Z,36.13
2022-09-04T15:53:11.601Z,35.86
2022-09-04T15:55:42.950Z,36.47
2022-09-04T15:58:49.666Z,36.24
2022-09-04T16:01:32.137Z,36.04
2022-09-04T16:04:18.244Z,36.87
2022-09-04T16:06:54.848Z,36.66
2022-09-04T16:09:40.188Z,36.87
2022-09-04T16:12:15.048Z,37.73
2022-09-04T16:14:53.506Z,38.41
2022-09-04T16:17:28.202Z,37.39
2022-09-04T16:20:34.473Z,37.17
2022-09-04T16:23:08.384Z,36.92
2022-09-04T16:25:50.168Z,37.49
2022-09-04T16:28:35.544Z,37.94
2022-09-04T16:31:06.785Z,37.76
2022-09-04T16:33:45.963Z,38.42
2022-09-04T16:36:20.920Z,37.18
2022-09-04T16:38:57.789Z,38.60
2022-09-04T16:41:37.836Z,37.83
2022-09-04T16:44:14.071Z,37.57
2022-09-04T16:46:50.895Z,39.02
2022-09-04T16:49:30.246Z,39.30
2022-09-04T16:52:22.852Z,38.69
2022-09-04T16:55:00.932Z,38.91
2022-09-04T16:57:55.762Z,39.17
2022-09-04T17:00:24.433Z,38.86
2022-09-04T17:03:08.130Z,39.39
2022-09-04T17:05:49.685Z,39.10
2022-09-04T17:08:29.371Z,38.98
2022-09-04T17:11:22.395Z,38.22
2022-09-04T17:13:59.983Z,38.90
2022-09-04T17:16:57.621Z,38.61
2022-09-04T17:19:26.982Z,38.61
2022-09-04T17:28:56.486Z,39.39
2022-09-04T17:29:04.018Z,39.05
2022-09-04T17:29:16.882Z,38.55
2022-09-04T17:31:45.714Z,39.09
2022-09-04T17:40:33.383Z,39.80
2022-09-04T17:40:53.464Z,38.82
2022-09-04T17:40:56.470Z,39.28
2022-09-04T17:43:28.064Z,38.98
2022-09-04T17:46:27.777Z,40.00
2022-09-04T17:48:56.845Z,39.27
2022-09-04T17:51:28.473Z,39.52
2022-09-04T17:54:00.714Z,39.34
2022-09-04T17:56:34.982Z,39.93
2022-09-04T17:59:34.528Z,40.52
2022-09-04T18:02:14.594Z,39.84
2022-09-04T18:04:57.682Z,40.13
2022-09-04T18:08:09.611Z,38.87
2022-09-04T18:11:07.410Z,40.04
2022-09-04T18:14:15.311Z,40.67
2022-09-04T18:17:11.236Z,40.35
2022-09-04T18:19:46.162Z,40.42
2022-09-04T18:22:46.358Z,41.21
2022-09-04T18:25:22.855Z,40.42
2022-09-04T18:28:12.939Z,40.94
2022-09-04T18:37:08.639Z,40.19
2022-09-04T18:37:26.549Z,40.88
2022-09-04T18:37:45.166Z,41.06
2022-09-04T18:40:17.820Z,40.99
2022-09-04T18:50:21.590Z,41.33
2022-09-04T18:50:29.882Z,39.86
2022-09-04T18:50:34.630Z,41.38
2022-09-04T18:51:59.351Z,39.45
2022-09-04T18:54:45.596Z,40.07
2022-09-04T18:57:49.049Z,40.55
2022-09-04T19:00:25.101Z,41.63
2022-09-04T19:03:32.049Z,40.51
2022-09-04T19:06:11.799Z,41.39
2022-09-04T19:08:47.704Z,41.76
2022-09-04T19:11:22.671Z,41.40
2022-09-04T19:14:10.895Z,41.61
2022-09-04T19:16:38.734Z,41.43
2022-09-04T19:19:27.229Z,41.91
2022-09-04T19:22:25.143Z,41.92
2022-09-04T19:25:05.684Z,41.64
2022-09-04T19:28:07.843Z,40.39
2022-09-04T19:30:49.263Z,41.99
2022-09-04T19:33:39.764Z,41.77
2022-09-04T19:36:34.391Z,41.48
2022-09-04T19:46:00.641Z,42.11
2022-09-04T19:46:07.277Z,40.94
2022-09-04T19:46:11.161Z,42.36
2022-09-04T19:48:04.988Z,41.33
2022-09-04T19:53:21.624Z,42.28
2022-09-04T19:53:48.541Z,41.76
2022-09-04T19:56:23.401Z,42.59
2022-09-04T19:58:53.605Z,40.82
2022-09-04T20:01:26.919Z,42.23
2022-09-04T20:04:04.566Z,42.88
2022-09-04T20:06:47.241Z,42.81
2022-09-04T20:09:33.193Z,42.73
2022-09-04T20:12:22.556Z,41.91
2022-09-04T20:14:56.354Z,42.54
2022-09-04T20:17:38.989Z,41.06
2022-09-04T20:20:12.801Z,40.41
2022-09-04T20:23:34.274Z,42.39
2022-09-04T20:26:25.046Z,42.60
2022-09-04T20:28:52.572Z,42.12
2022-09-04T20:31:36.795Z,42.80
2022-09-04T20:34:22.609Z,42.26
2022-09-04T20:36:59.641Z,42.59
2022-09-04T20:39:44.227Z,41.72
2022-09-04T20:42:41.866Z,43.90
2022-09-04T20:48:24.386Z,43.65
2022-09-04T20:52:51.143Z,43.85
2022-09-04T20:52:54.897Z,43.95
2022-09-04T20:54:37.275Z,42.89
2022-09-04T21:01:16.328Z,44.67
2022-09-04T21:03:20.597Z,44.12
2022-09-04T21:03:35.603Z,45.14
2022-09-04T21:06:30.422Z,45.36
2022-09-04T21:09:05.880Z,44.54
2022-09-04T21:11:45.439Z,45.94
2022-09-04T21:14:22.114Z,45.74
2022-09-04T21:17:35.269Z,45.88
2022-09-04T21:20:30.805Z,45.51
2022-09-04T21:23:31.961Z,46.86
2022-09-04T21:26:08.492Z,46.99
2022-09-04T21:29:11.361Z,46.70
2022-09-04T21:31:59.538Z,44.92
2022-09-04T21:34:43.761Z,44.66
2022-09-04T21:37:34.207Z,44.83
2022-09-04T21:40:51.106Z,46.28
2022-09-04T21:43:47.077Z,46.68
2022-09-04T21:46:30.715Z,46.48
2022-09-04T21:49:27.059Z,45.84
2022-09-04T21:52:12.812Z,46.88
2022-09-04T21:58:37.171Z,47.70
2022-09-04T22:02:40.453Z,46.02
2022-09-04T22:02:41.532Z,46.98
2022-09-04T22:05:07.400Z,46.06
2022-09-04T22:13:26.109Z,46.01
2022-09-04T22:13:38.854Z,48.02
2022-09-04T22:14:00.164Z,48.87
2022-09-04T22:16:53.601Z,46.86
2022-09-04T22:19:39.738Z,47.20
2022-09-04T22:22:22.230Z,48.24
2022-09-04T22:25:06.746Z,49.29
2022-09-04T22:28:09.771Z,49.11
2022-09-04T22:30:58.556Z,48.58
2022-09-04T22:34:14.917Z,48.64
2022-09-04T22:37:01.200Z,47.50
2022-09-04T22:39:47.335Z,47.63
2022-09-04T22:42:45.742Z,49.47
2022-09-04T22:45:35.596Z,49.81
2022-09-04T22:48:12.041Z,47.88
2022-09-04T22:51:18.086Z,49.82
2022-09-04T22:54:08.279Z,49.85
2022-09-04T22:56:52.903Z,50.22
2022-09-04T22:59:53.806Z,50.21
2022-09-04T23:02:54.212Z,50.20
2022-09-04T23:05:40.517Z,49.92
2022-09-04T23:13:47.314Z,50.90
2022-09-04T23:13:47.650Z,48.94
2022-09-04T23:14:26.977Z,51.18
2022-09-04T23:17:15.310Z,51.23
2022-09-04T23:26:09.030Z,50.32
2022-09-04T23:26:49.803Z,51.08
2022-09-04T23:26:53.144Z,51.15
2022-09-04T23:29:41.102Z,51.37
2022-09-04T23:32:30.966Z,51.50
2022-09-04T23:35:16.817Z,51.42
2022-09-04T23:38:11.708Z,51.56
2022-09-04T23:40:53.945Z,51.36
2022-09-04T23:43:37.331Z,51.06
2022-09-04T23:46:26.588Z,48.74
2022-09-04T23:49:31.231Z,49.93
2022-09-04T23:52:03.575Z,48.45
2022-09-04T23:54:58.248Z,50.75
2022-09-04T23:57:39.971Z,50.57
